createdAt,value
2023-04-10T00:01:38.626Z,10.23
2023-04-10T00:03:41.409Z,10.25
2023-04-10T00:05:44.143Z,10.02
2023-04-10T00:07:46.701Z,9.45
2023-04-10T00:09:49.251Z,10.15
2023-04-10T00:11:51.800Z,10.32
2023-04-10T00:13:54.775Z,10.25
2023-04-10T00:15:58.054Z,10.32
2023-04-10T00:18:02.021Z,9.73
2023-04-10T00:20:05.076Z,10.50
2023-04-10T00:22:07.650Z,9.45
2023-04-10T00:24:10.384Z,9.73
2023-04-10T00:26:13.374Z,10.23
2023-04-10T00:28:17.206Z,10.32
2023-04-10T00:30:19.860Z,9.63
2023-04-10T00:32:22.475Z,10.82
2023-04-10T00:34:26.692Z,10.13
2023-04-10T00:36:29.240Z,10.15
2023-04-10T00:38:31.770Z,10.13
2023-04-10T00:40:34.412Z,10.02
2023-04-10T00:42:37.271Z,10.38
2023-04-10T00:44:41.366Z,10.30
2023-04-10T00:46:44.382Z,9.40
2023-04-10T00:48:47.455Z,10.18
2023-04-10T00:50:51.509Z,9.05
2023-04-10T00:52:54.413Z,10.43
2023-04-10T00:54:57.051Z,10.10
2023-04-10T00:57:00.000Z,9.10
2023-04-10T00:59:05.783Z,10.73
2023-04-10T01:01:09.773Z,9.57
2023-04-10T01:03:14.175Z,10.70
2023-04-10T01:05:17.171Z,9.80
2023-04-10T01:07:31.535Z,9.77
2023-04-10T01:09:40.624Z,9.25
2023-04-10T01:11:52.423Z,9.13
2023-04-10T01:16:05.644Z,9.27
2023-04-10T01:18:15.736Z,9.43
2023-04-10T01:20:26.379Z,9.68
2023-04-10T01:22:36.750Z,9.32
2023-04-10T01:24:59.758Z,9.68
2023-04-10T01:27:13.535Z,9.35
2023-04-10T01:29:20.438Z,8.85
2023-04-10T01:31:30.807Z,9.18
2023-04-10T01:33:39.983Z,8.65
2023-04-10T01:35:44.971Z,9.07
2023-04-10T01:37:51.852Z,9.77
2023-04-10T01:40:00.324Z,9.23
2023-04-10T01:42:04.251Z,8.57
2023-04-10T01:44:08.309Z,9.43
2023-04-10T01:46:13.645Z,8.93
2023-04-10T01:48:18.719Z,9.10
2023-04-10T01:50:23.898Z,8.77
2023-04-10T01:52:28.873Z,9.15
2023-04-10T01:54:33.595Z,8.20
2023-04-10T01:56:36.668Z,9.10
2023-04-10T01:58:39.636Z,9.20
2023-04-10T02:00:43.848Z,8.75
2023-04-10T02:02:47.845Z,9.27
2023-04-10T02:04:51.710Z,9.48
2023-04-10T02:07:05.046Z,9.38
2023-04-10T02:09:16.853Z,9.13
2023-04-10T02:13:36.439Z,9.00
2023-04-10T02:15:43.534Z,8.98
2023-04-10T02:17:48.083Z,8.40
2023-04-10T02:19:54.173Z,10.05
2023-04-10T02:21:57.997Z,8.55
2023-04-10T02:24:01.105Z,8.93
2023-04-10T02:26:08.845Z,8.73
2023-04-10T02:28:11.397Z,9.05
2023-04-10T02:30:13.964Z,9.55
2023-04-10T02:32:17.331Z,9.73
2023-04-10T02:34:21.196Z,9.77
2023-04-10T02:36:24.003Z,9.85
2023-04-10T02:38:27.575Z,9.07
2023-04-10T02:40:30.201Z,8.05
2023-04-10T02:42:32.760Z,8.68
2023-04-10T02:44:35.564Z,9.18
2023-04-10T02:46:38.133Z,8.57
2023-04-10T02:48:42.838Z,8.95
2023-04-10T02:50:47.418Z,9.52
2023-04-10T02:52:50.058Z,8.15
2023-04-10T02:54:52.612Z,9.73
2023-04-10T02:56:55.934Z,9.38
2023-04-10T02:58:58.457Z,9.27
2023-04-10T03:01:01.650Z,8.60
2023-04-10T03:03:04.293Z,8.90
2023-04-10T03:05:08.800Z,10.23
2023-04-10T03:07:12.678Z,9.68
2023-04-10T03:09:15.280Z,9.32
2023-04-10T03:11:17.848Z,8.60
2023-04-10T03:13:20.488Z,8.60
2023-04-10T03:15:23.083Z,8.30
2023-04-10T03:17:25.761Z,8.32
2023-04-10T03:19:28.320Z,8.45
2023-04-10T03:21:31.013Z,8.57
2023-04-10T03:23:34.926Z,9.57
2023-04-10T03:25:37.774Z,8.77
2023-04-10T03:27:40.404Z,9.18
2023-04-10T03:29:43.945Z,9.32
2023-04-10T03:31:46.820Z,8.50
2023-04-10T03:33:49.488Z,8.57
2023-04-10T03:35:53.612Z,8.45
2023-04-10T03:37:56.176Z,8.35
2023-04-10T03:40:02.269Z,8.48
2023-04-10T03:42:05.027Z,8.85
2023-04-10T03:44:07.553Z,9.73
2023-04-10T03:46:10.276Z,9.43
2023-04-10T03:48:12.944Z,8.23
2023-04-10T03:50:15.634Z,8.35
2023-04-10T03:52:18.183Z,9.05
2023-04-10T03:54:20.851Z,9.40
2023-04-10T03:56:23.889Z,9.88
2023-04-10T03:58:26.436Z,8.82
2023-04-10T04:00:29.031Z,9.02
2023-04-10T04:02:31.736Z,8.93
2023-04-10T04:04:34.519Z,9.18
2023-04-10T04:06:37.158Z,8.98
2023-04-10T04:08:39.710Z,9.50
2023-04-10T04:10:42.245Z,9.23
2023-04-10T04:12:46.171Z,8.93
2023-04-10T04:14:48.735Z,9.25
2023-04-10T04:16:51.631Z,8.90
2023-04-10T04:18:54.201Z,8.90
2023-04-10T04:20:56.703Z,9.25
2023-04-10T04:22:59.668Z,9.13
2023-04-10T04:25:02.261Z,9.40
2023-04-10T04:27:04.993Z,8.90
2023-04-10T04:29:08.903Z,8.57
2023-04-10T04:31:11.956Z,8.77
2023-04-10T04:33:14.563Z,8.82
2023-04-10T04:35:17.102Z,8.95
2023-04-10T04:37:19.649Z,9.85
2023-04-10T04:39:23.166Z,8.52
2023-04-10T04:41:25.796Z,8.90
2023-04-10T04:43:28.354Z,8.73
2023-04-10T04:45:32.250Z,9.00
2023-04-10T04:47:34.836Z,8.73
2023-04-10T04:49:37.468Z,9.27
2023-04-10T04:51:40.025Z,8.75
2023-04-10T04:53:42.591Z,8.60
2023-04-10T04:55:45.288Z,8.45
2023-04-10T04:57:47.848Z,8.77
2023-04-10T04:59:53.271Z,8.73
2023-04-10T05:01:57.211Z,10.57
2023-04-10T05:04:00.145Z,9.55
2023-04-10T05:06:02.940Z,9.10
2023-04-10T05:08:05.996Z,9.20
2023-04-10T05:10:09.736Z,9.57
2023-04-10T05:12:12.289Z,8.82
2023-04-10T05:14:14.813Z,9.73
2023-04-10T05:16:17.388Z,10.50
2023-04-10T05:18:23.747Z,9.88
2023-04-10T05:20:27.234Z,9.10
2023-04-10T05:22:29.774Z,8.07
2023-04-10T05:24:32.597Z,9.63
2023-04-10T05:26:35.240Z,9.20
2023-04-10T05:28:37.783Z,9.02
2023-04-10T05:30:41.366Z,9.90
2023-04-10T05:32:43.972Z,9.55
2023-04-10T05:34:48.116Z,10.30
2023-04-10T05:36:50.707Z,10.48
2023-04-10T05:38:53.417Z,10.02
2023-04-10T05:40:56.255Z,11.30
2023-04-10T05:42:58.832Z,10.70
2023-04-10T05:45:01.351Z,10.65
2023-04-10T05:47:03.923Z,10.45
2023-04-10T05:49:06.479Z,10.30
2023-04-10T05:51:10.412Z,10.23
2023-04-10T05:53:14.843Z,9.98
2023-04-10T05:55:17.656Z,10.20
2023-04-10T05:57:20.225Z,9.90
2023-04-10T05:59:24.955Z,10.38
2023-04-10T06:01:27.642Z,10.85
2023-04-10T06:03:30.875Z,10.77
2023-04-10T06:05:33.631Z,11.23
2023-04-10T06:07:37.545Z,9.90
2023-04-10T06:09:40.096Z,10.65
2023-04-10T06:11:42.645Z,10.50
2023-04-10T06:13:45.609Z,10.93
2023-04-10T06:15:48.178Z,11.48
2023-04-10T06:17:51.038Z,10.82
2023-04-10T06:19:53.697Z,9.80
2023-04-10T06:21:56.228Z,10.63
2023-04-10T06:24:00.129Z,10.55
2023-04-10T06:26:03.434Z,9.85
2023-04-10T06:28:06.310Z,9.80
2023-04-10T06:30:10.443Z,10.23
2023-04-10T06:32:13.048Z,10.18
2023-04-10T06:34:15.773Z,9.27
2023-04-10T06:36:18.524Z,10.45
2023-04-10T06:38:21.792Z,10.02
2023-04-10T06:40:25.810Z,9.60
2023-04-10T06:42:28.337Z,10.40
2023-04-10T06:44:30.899Z,10.57
2023-04-10T06:46:33.472Z,9.90
2023-04-10T06:48:36.073Z,10.57
2023-04-10T06:50:38.640Z,9.02
2023-04-10T06:52:41.180Z,8.57
2023-04-10T06:54:43.898Z,10.07
2023-04-10T06:56:47.829Z,9.38
2023-04-10T06:58:50.389Z,9.90
2023-04-10T07:00:53.023Z,10.10
2023-04-10T07:02:55.581Z,9.18
2023-04-10T07:04:58.183Z,9.60
2023-04-10T07:07:01.237Z,11.25
2023-04-10T07:09:03.940Z,10.70
2023-04-10T07:11:06.971Z,10.68
2023-04-10T07:13:10.876Z,9.95
2023-04-10T07:15:13.457Z,9.57
2023-04-10T07:17:15.983Z,9.13
2023-04-10T07:19:18.543Z,8.85
2023-04-10T07:21:21.354Z,8.95
2023-04-10T07:23:24.079Z,8.88
2023-04-10T07:25:26.679Z,8.85
2023-04-10T07:27:29.210Z,9.40
2023-04-10T07:29:33.096Z,10.23
2023-04-10T07:31:35.885Z,9.27
2023-04-10T07:33:38.713Z,9.68
2023-04-10T07:35:41.553Z,9.70
2023-04-10T07:37:44.320Z,9.23
2023-04-10T07:39:47.322Z,8.98
2023-04-10T07:41:49.882Z,9.27
2023-04-10T07:43:52.452Z,10.70
2023-04-10T07:45:57.014Z,8.95
2023-04-10T07:47:59.662Z,9.68
2023-04-10T07:50:02.358Z,9.55
2023-04-10T07:52:05.157Z,9.25
2023-04-10T07:54:07.737Z,8.77
2023-04-10T07:56:16.609Z,8.25
2023-04-10T07:58:19.252Z,7.00
2023-04-10T08:00:21.920Z,6.20
2023-04-10T08:02:26.139Z,5.45
2023-04-10T08:04:29.086Z,4.90
2023-04-10T08:06:32.205Z,5.38
2023-04-10T08:08:34.729Z,4.90
2023-04-10T08:10:37.967Z,4.95
2023-04-10T08:12:40.508Z,5.43
2023-04-10T08:14:44.580Z,4.95
2023-04-10T08:16:47.138Z,4.90
2023-04-10T08:18:51.382Z,4.32
2023-04-10T08:20:53.914Z,5.30
2023-04-10T08:23:03.162Z,5.68
2023-04-10T08:25:17.535Z,5.28
2023-04-10T08:27:20.252Z,6.30
2023-04-10T08:31:28.085Z,3.88
2023-04-10T08:33:31.948Z,3.67
2023-04-10T08:35:35.883Z,3.75
2023-04-10T08:37:38.631Z,3.45
2023-04-10T08:39:41.161Z,3.55
2023-04-10T08:41:43.772Z,3.58
2023-04-10T08:43:47.131Z,3.55
2023-04-10T08:45:51.147Z,3.33
2023-04-10T08:47:58.613Z,3.35
2023-04-10T08:50:07.737Z,3.58
2023-04-10T08:52:17.082Z,3.22
2023-04-10T08:54:21.650Z,3.50
2023-04-10T08:56:25.558Z,3.30
2023-04-10T08:58:29.385Z,3.28
2023-04-10T09:00:34.701Z,3.55
2023-04-10T09:02:42.283Z,2.75
2023-04-10T09:04:49.649Z,3.40
2023-04-10T09:06:53.533Z,2.80
2023-04-10T09:11:07.688Z,3.70
2023-04-10T09:13:10.289Z,2.85
2023-04-10T09:15:13.862Z,2.90
2023-04-10T09:17:18.999Z,2.78
2023-04-10T09:19:31.187Z,2.75
2023-04-10T09:21:33.802Z,2.58
2023-04-10T09:23:36.352Z,2.63
2023-04-10T09:25:40.301Z,2.55
2023-04-10T09:27:42.881Z,2.53
2023-04-10T09:29:48.427Z,2.70
2023-04-10T09:31:51.647Z,2.78
2023-04-10T09:34:08.541Z,2.53
2023-04-10T09:36:14.205Z,2.40
2023-04-10T09:38:17.917Z,2.42
2023-04-10T09:40:22.137Z,2.25
2023-04-10T09:42:34.578Z,2.53
2023-04-10T09:44:39.071Z,2.10
2023-04-10T09:46:42.098Z,2.60
2023-04-10T09:48:55.779Z,2.17
2023-04-10T09:50:58.769Z,2.63
2023-04-10T09:53:01.346Z,2.65
2023-04-10T09:55:06.512Z,2.70
2023-04-10T09:57:09.235Z,3.10
2023-04-10T09:59:15.646Z,2.88
2023-04-10T10:01:18.495Z,2.60
2023-04-10T10:03:21.974Z,2.60
2023-04-10T10:05:28.050Z,2.25
2023-04-10T10:07:31.128Z,2.45
2023-04-10T10:09:33.863Z,2.25
2023-04-10T10:11:37.126Z,2.17
2023-04-10T10:13:47.984Z,2.55
2023-04-10T10:15:59.108Z,1.90
2023-04-10T10:18:08.702Z,1.67
2023-04-10T10:20:12.442Z,2.40
2023-04-10T10:22:15.389Z,1.50
2023-04-10T10:24:21.155Z,1.73
2023-04-10T10:26:25.227Z,1.48
2023-04-10T10:28:29.227Z,1.38
2023-04-10T10:30:33.198Z,1.30
2023-04-10T10:32:37.503Z,1.70
2023-04-10T10:34:41.430Z,1.25
2023-04-10T10:36:44.248Z,1.10
2023-04-10T10:38:55.331Z,1.20
2023-04-10T10:41:03.443Z,1.38
2023-04-10T10:43:13.390Z,1.38
2023-04-10T10:45:19.201Z,1.05
2023-04-10T10:47:25.663Z,1.00
2023-04-10T10:49:57.358Z,1.40
2023-04-10T10:51:59.956Z,1.35
2023-04-10T10:54:02.639Z,1.17
2023-04-10T10:56:39.428Z,1.00
2023-04-10T10:58:48.872Z,1.40
2023-04-10T11:01:10.765Z,1.40
2023-04-10T11:05:52.411Z,1.30
2023-04-10T11:08:10.333Z,1.20
2023-04-10T11:10:12.904Z,1.38
2023-04-10T11:12:16.541Z,1.42
2023-04-10T11:14:21.321Z,1.20
2023-04-10T11:16:25.622Z,1.35
2023-04-10T11:19:13.080Z,1.40
2023-04-10T11:21:19.853Z,1.15
2023-04-10T11:23:22.447Z,1.30
2023-04-10T11:25:49.260Z,1.40
2023-04-10T11:27:52.927Z,1.35
2023-04-10T11:29:55.704Z,1.58
2023-04-10T11:31:59.781Z,1.30
2023-04-10T11:34:03.834Z,1.20
2023-04-10T11:36:07.704Z,1.20
2023-04-10T11:38:16.422Z,1.23
2023-04-10T11:40:21.634Z,1.27
2023-04-10T11:42:24.204Z,1.80
2023-04-10T11:44:31.847Z,1.73
2023-04-10T11:46:37.551Z,2.00
2023-04-10T11:48:40.166Z,1.42
2023-04-10T11:50:42.707Z,1.27
2023-04-10T11:52:45.913Z,1.90
2023-04-10T11:54:50.491Z,1.45
2023-04-10T11:56:59.570Z,1.80
2023-04-10T11:59:07.093Z,1.60
2023-04-10T12:01:14.180Z,1.40
2023-04-10T12:03:16.795Z,1.60
2023-04-10T12:05:19.784Z,1.50
2023-04-10T12:07:24.946Z,1.90
2023-04-10T12:09:27.624Z,1.70
2023-04-10T12:11:31.611Z,1.50
2023-04-10T12:13:34.274Z,1.60
2023-04-10T12:15:38.655Z,1.83
2023-04-10T12:17:41.371Z,1.77
2023-04-10T12:19:44.089Z,1.60
2023-04-10T12:21:47.424Z,1.63
2023-04-10T12:23:53.113Z,1.85
2023-04-10T12:26:11.780Z,1.70
2023-04-10T12:28:20.527Z,2.00
2023-04-10T12:30:23.219Z,1.63
2023-04-10T12:32:27.328Z,1.60
2023-04-10T12:34:30.344Z,1.65
2023-04-10T12:36:34.902Z,1.80
2023-04-10T12:38:41.908Z,2.03
2023-04-10T12:40:59.867Z,1.70
2023-04-10T12:43:02.702Z,1.80
2023-04-10T12:45:09.796Z,1.80
2023-04-10T12:47:12.356Z,1.63
2023-04-10T12:49:16.307Z,1.77
2023-04-10T12:51:18.865Z,1.38
2023-04-10T12:53:21.532Z,1.10
2023-04-10T12:55:24.094Z,1.30
2023-04-10T12:57:28.292Z,1.40
2023-04-10T12:59:32.669Z,1.23
2023-04-10T13:01:38.455Z,1.88
2023-04-10T13:03:41.200Z,1.50
2023-04-10T13:05:43.906Z,1.52
2023-04-10T13:07:46.454Z,1.70
2023-04-10T13:09:49.065Z,1.85
2023-04-10T13:11:52.512Z,1.50
2023-04-10T13:13:55.030Z,1.58
2023-04-10T13:15:57.647Z,1.90
2023-04-10T13:18:02.978Z,1.63
2023-04-10T13:20:10.228Z,1.85
2023-04-10T13:22:12.906Z,1.88
2023-04-10T13:24:16.721Z,1.58
2023-04-10T13:26:19.596Z,1.50
2023-04-10T13:28:22.132Z,1.65
2023-04-10T13:30:24.668Z,1.85
2023-04-10T13:32:27.335Z,1.40
2023-04-10T13:34:31.197Z,1.83
2023-04-10T13:36:33.833Z,1.52
2023-04-10T13:38:36.419Z,1.42
2023-04-10T13:40:39.053Z,1.60
2023-04-10T13:42:42.606Z,1.50
2023-04-10T13:44:45.322Z,1.40
2023-04-10T13:46:47.899Z,1.40
2023-04-10T13:48:50.530Z,1.50
2023-04-10T13:50:54.401Z,1.63
2023-04-10T13:52:56.937Z,1.67
2023-04-10T13:54:59.510Z,1.58
2023-04-10T13:57:02.802Z,1.65
2023-04-10T13:59:05.524Z,1.90
2023-04-10T14:01:08.549Z,1.60
2023-04-10T14:03:12.314Z,1.58
2023-04-10T14:05:15.022Z,1.30
2023-04-10T14:07:19.220Z,1.15
2023-04-10T14:09:22.976Z,1.77
2023-04-10T14:11:26.813Z,1.77
2023-04-10T14:13:30.355Z,1.50
2023-04-10T14:15:32.888Z,1.70
2023-04-10T14:17:35.713Z,1.88
2023-04-10T14:19:39.671Z,1.75
2023-04-10T14:21:44.318Z,1.63
2023-04-10T14:23:48.325Z,1.77
2023-04-10T14:25:51.763Z,1.70
2023-04-10T14:27:54.304Z,1.90
2023-04-10T14:29:56.935Z,1.65
2023-04-10T14:31:59.753Z,1.50
2023-04-10T14:34:02.312Z,1.77
2023-04-10T14:36:05.406Z,1.52
2023-04-10T14:38:08.327Z,2.08
2023-04-10T14:40:12.861Z,1.75
2023-04-10T14:42:15.494Z,1.52
2023-04-10T14:44:18.151Z,1.90
2023-04-10T14:46:20.694Z,1.50
2023-04-10T14:48:23.493Z,1.65
2023-04-10T14:50:26.218Z,1.80
2023-04-10T14:52:28.805Z,1.60
2023-04-10T14:54:31.364Z,1.52
2023-04-10T14:56:35.333Z,1.42
2023-04-10T14:58:37.871Z,1.70
2023-04-10T15:00:40.704Z,1.77
2023-04-10T15:02:43.562Z,1.77
2023-04-10T15:04:47.474Z,2.00
2023-04-10T15:06:51.189Z,2.00
2023-04-10T15:08:53.745Z,1.42
2023-04-10T15:10:56.352Z,1.70
2023-04-10T15:13:00.238Z,1.90
2023-04-10T15:15:02.787Z,1.50
2023-04-10T15:17:05.516Z,1.60
2023-04-10T15:19:08.301Z,1.50
2023-04-10T15:21:10.863Z,1.60
2023-04-10T15:23:13.422Z,1.27
2023-04-10T15:25:16.137Z,1.50
2023-04-10T15:27:20.033Z,1.63
2023-04-10T15:29:24.447Z,1.25
2023-04-10T15:31:27.221Z,1.60
2023-04-10T15:33:29.783Z,1.45
2023-04-10T15:35:36.653Z,1.77
2023-04-10T15:37:39.218Z,1.15
2023-04-10T15:39:41.758Z,1.50
2023-04-10T15:41:44.343Z,1.20
2023-04-10T15:43:46.907Z,1.13
2023-04-10T15:45:50.903Z,1.40
2023-04-10T15:47:53.587Z,1.45
2023-04-10T15:49:58.804Z,1.30
2023-04-10T15:52:01.324Z,1.67
2023-04-10T15:54:04.938Z,1.38
2023-04-10T15:56:08.611Z,1.27
2023-04-10T15:58:11.185Z,1.50
2023-04-10T16:00:15.436Z,1.23
2023-04-10T16:02:19.413Z,1.00
2023-04-10T16:04:22.286Z,1.15
2023-04-10T16:06:25.846Z,1.40
2023-04-10T16:08:28.716Z,1.05
2023-04-10T16:10:31.310Z,1.48
2023-04-10T16:12:33.835Z,1.40
2023-04-10T16:14:36.385Z,1.67
2023-04-10T16:16:38.937Z,1.23
2023-04-10T16:18:45.438Z,1.13
2023-04-10T16:20:47.963Z,1.20
2023-04-10T16:22:50.686Z,1.40
2023-04-10T16:24:56.622Z,1.48
2023-04-10T16:26:59.261Z,1.10
2023-04-10T16:29:01.965Z,1.40
2023-04-10T16:31:04.664Z,1.40
2023-04-10T16:33:07.357Z,1.42
2023-04-10T16:35:11.586Z,1.23
2023-04-10T16:37:14.496Z,1.15
2023-04-10T16:39:17.081Z,0.98
2023-04-10T16:41:20.885Z,0.95
2023-04-10T16:43:24.384Z,1.00
2023-04-10T16:45:27.426Z,1.30
2023-04-10T16:47:30.181Z,1.15
2023-04-10T16:49:32.824Z,1.15
2023-04-10T16:51:36.730Z,1.65
2023-04-10T16:53:39.267Z,1.55
2023-04-10T16:55:41.812Z,1.70
2023-04-10T16:57:44.403Z,1.30
2023-04-10T16:59:47.043Z,1.20
2023-04-10T17:01:49.605Z,0.98
2023-04-10T17:03:52.380Z,1.10
2023-04-10T17:05:55.060Z,0.88
2023-04-10T17:07:58.929Z,1.00
2023-04-10T17:10:01.496Z,1.10
2023-04-10T17:12:04.141Z,1.00
2023-04-10T17:14:07.361Z,1.05
2023-04-10T17:16:11.372Z,1.23
2023-04-10T17:18:15.143Z,1.00
2023-04-10T17:20:18.110Z,1.10
2023-04-10T17:22:23.042Z,1.20
2023-04-10T17:24:26.976Z,1.13
2023-04-10T17:26:30.693Z,1.08
2023-04-10T17:28:33.449Z,1.30
2023-04-10T17:30:36.079Z,1.05
2023-04-10T17:32:38.644Z,1.00
2023-04-10T17:34:41.218Z,1.10
2023-04-10T17:36:43.819Z,1.10
2023-04-10T17:38:46.344Z,1.20
2023-04-10T17:40:50.247Z,1.25
2023-04-10T17:42:53.352Z,1.10
2023-04-10T17:44:55.899Z,1.30
2023-04-10T17:46:58.510Z,1.33
2023-04-10T17:49:01.439Z,1.10
2023-04-10T17:51:06.248Z,1.13
2023-04-10T17:53:08.792Z,1.50
2023-04-10T17:55:11.333Z,1.48
2023-04-10T17:57:15.351Z,1.50
2023-04-10T17:59:17.890Z,1.30
2023-04-10T18:01:24.252Z,1.23
2023-04-10T18:03:26.995Z,1.27
2023-04-10T18:05:29.725Z,1.45
2023-04-10T18:07:32.318Z,1.33
2023-04-10T18:09:34.887Z,1.40
2023-04-10T18:11:37.432Z,1.58
2023-04-10T18:13:41.298Z,1.58
2023-04-10T18:15:43.851Z,1.90
2023-04-10T18:17:46.415Z,1.77
2023-04-10T18:19:50.692Z,1.70
2023-04-10T18:21:53.253Z,1.80
2023-04-10T18:23:55.922Z,2.08
2023-04-10T18:25:58.465Z,2.17
2023-04-10T18:30:11.916Z,1.90
2023-04-10T18:32:15.330Z,1.90
2023-04-10T18:34:17.865Z,2.05
2023-04-10T18:36:21.401Z,1.98
2023-04-10T18:38:24.218Z,2.30
2023-04-10T18:40:26.817Z,2.47
2023-04-10T18:42:31.321Z,2.25
2023-04-10T18:44:34.846Z,1.90
2023-04-10T18:46:41.335Z,2.17
2023-04-10T18:48:46.791Z,1.83
2023-04-10T18:50:53.411Z,1.90
2023-04-10T18:52:56.319Z,1.95
2023-04-10T18:54:58.830Z,1.67
2023-04-10T18:57:01.612Z,2.03
2023-04-10T18:59:04.147Z,1.98
2023-04-10T19:01:07.063Z,2.38
2023-04-10T19:03:11.360Z,1.90
2023-04-10T19:05:14.426Z,2.03
2023-04-10T19:07:17.320Z,2.08
2023-04-10T19:09:19.880Z,1.95
2023-04-10T19:11:22.443Z,2.47
2023-04-10T19:13:24.995Z,1.90
2023-04-10T19:15:28.091Z,2.20
2023-04-10T19:17:30.663Z,2.00
2023-04-10T19:19:34.915Z,2.25
2023-04-10T19:21:37.512Z,2.20
2023-04-10T19:23:41.298Z,1.70
2023-04-10T19:25:44.184Z,1.85
2023-04-10T19:27:46.724Z,2.28
2023-04-10T19:29:49.257Z,2.33
2023-04-10T19:31:51.828Z,2.42
2023-04-10T19:33:54.343Z,2.20
2023-04-10T19:35:59.004Z,2.58
2023-04-10T19:38:01.733Z,2.50
2023-04-10T19:40:04.865Z,2.50
2023-04-10T19:42:07.439Z,2.22
2023-04-10T19:44:10.251Z,2.83
2023-04-10T19:46:19.301Z,2.53
2023-04-10T19:48:21.912Z,2.58
2023-04-10T19:50:24.796Z,3.00
2023-04-10T19:52:28.668Z,2.88
2023-04-10T19:54:31.243Z,2.30
2023-04-10T19:56:36.929Z,2.50
2023-04-10T19:58:41.458Z,2.45
2023-04-10T20:00:44.702Z,2.42
2023-04-10T20:02:47.504Z,2.80
2023-04-10T20:04:50.241Z,2.70
2023-04-10T20:06:52.862Z,2.85
2023-04-10T20:08:57.126Z,2.75
2023-04-10T20:10:59.826Z,3.13
2023-04-10T20:13:02.367Z,2.95
2023-04-10T20:15:06.025Z,2.88
2023-04-10T20:17:08.600Z,3.10
2023-04-10T20:19:11.116Z,2.80
2023-04-10T20:21:16.768Z,3.00
2023-04-10T20:23:19.367Z,3.45
2023-04-10T20:25:23.275Z,2.83
2023-04-10T20:27:25.846Z,3.50
2023-04-10T20:29:28.396Z,3.10
2023-04-10T20:31:33.326Z,3.30
2023-04-10T20:33:38.232Z,3.00
2023-04-10T20:35:40.917Z,3.58
2023-04-10T20:37:43.549Z,3.65
2023-04-10T20:39:46.058Z,3.08
2023-04-10T20:41:49.934Z,3.70
2023-04-10T20:43:52.474Z,3.70
2023-04-10T20:45:55.074Z,3.10
2023-04-10T20:47:58.307Z,3.28
2023-04-10T20:50:00.892Z,3.13
2023-04-10T20:52:04.246Z,3.13
2023-04-10T20:54:07.402Z,3.40
2023-04-10T20:56:10.441Z,3.35
2023-04-10T20:58:14.294Z,3.25
2023-04-10T21:00:17.608Z,3.10
2023-04-10T21:02:20.243Z,3.67
2023-04-10T21:04:22.826Z,3.30
2023-04-10T21:06:26.425Z,3.42
2023-04-10T21:08:29.225Z,3.30
2023-04-10T21:10:31.743Z,3.20
2023-04-10T21:12:34.279Z,3.17
2023-04-10T21:14:38.167Z,2.90
2023-04-10T21:16:42.559Z,3.08
2023-04-10T21:18:45.346Z,3.22
2023-04-10T21:20:47.896Z,3.17
2023-04-10T21:22:50.702Z,2.95
2023-04-10T21:24:53.372Z,3.17
2023-04-10T21:26:55.927Z,2.88
2023-04-10T21:28:58.491Z,3.13
2023-04-10T21:31:02.548Z,2.65
2023-04-10T21:33:05.221Z,3.10
2023-04-10T21:35:08.636Z,2.83
2023-04-10T21:37:11.184Z,2.60
2023-04-10T21:39:13.749Z,2.22
2023-04-10T21:41:16.394Z,2.17
2023-04-10T21:43:19.009Z,2.05
2023-04-10T21:45:21.565Z,2.05
2023-04-10T21:47:25.616Z,2.20
2023-04-10T21:49:28.173Z,2.25
2023-04-10T21:51:31.046Z,2.08
2023-04-10T21:53:33.636Z,1.88
2023-04-10T21:55:36.181Z,2.20
2023-04-10T21:57:38.731Z,2.10
2023-04-10T21:59:41.290Z,2.10
2023-04-10T22:01:44.027Z,1.92
2023-04-10T22:03:48.165Z,2.05
2023-04-10T22:05:50.861Z,1.80
2023-04-10T22:07:53.403Z,1.90
2023-04-10T22:09:55.931Z,1.80
2023-04-10T22:11:58.487Z,1.30
2023-04-10T22:14:12.624Z,2.00
2023-04-10T22:16:17.874Z,1.90
2023-04-10T22:18:20.413Z,1.98
2023-04-10T22:20:24.322Z,1.90
2023-04-10T22:22:26.992Z,2.00
2023-04-10T22:24:29.549Z,1.88
2023-04-10T22:26:32.771Z,2.00
2023-04-10T22:28:35.420Z,1.80
2023-04-10T22:30:37.974Z,1.60
2023-04-10T22:32:40.600Z,1.80
2023-04-10T22:34:43.186Z,1.98
2023-04-10T22:36:47.058Z,1.75
2023-04-10T22:38:49.609Z,1.67
2023-04-10T22:40:54.816Z,1.65
2023-04-10T22:42:57.448Z,1.95
2023-04-10T22:45:02.791Z,1.75
2023-04-10T22:47:05.478Z,1.60
2023-04-10T22:49:08.143Z,1.98
2023-04-10T22:51:11.714Z,2.30
2023-04-10T22:53:15.621Z,2.17
2023-04-10T22:55:18.193Z,1.52
2023-04-10T22:57:20.823Z,1.40
2023-04-10T22:59:23.341Z,1.42
2023-04-10T23:01:25.941Z,1.48
2023-04-10T23:03:28.565Z,1.80
2023-04-10T23:05:32.935Z,1.67
2023-04-10T23:07:35.511Z,1.58
2023-04-10T23:09:39.388Z,1.58
2023-04-10T23:11:41.917Z,1.75
2023-04-10T23:13:44.538Z,1.75
2023-04-10T23:15:49.948Z,1.85
2023-04-10T23:17:52.734Z,1.77
2023-04-10T23:19:55.408Z,1.73
2023-04-10T23:21:57.965Z,1.33
2023-04-10T23:24:00.484Z,1.38
2023-04-10T23:26:04.440Z,1.55
2023-04-10T23:28:07.218Z,1.77
2023-04-10T23:30:10.259Z,1.40
2023-04-10T23:32:12.862Z,1.65
2023-04-10T23:34:15.420Z,1.35
2023-04-10T23:36:18.013Z,1.40
2023-04-10T23:38:21.193Z,1.70
2023-04-10T23:40:23.732Z,1.50
2023-04-10T23:42:27.636Z,1.80
2023-04-10T23:44:30.197Z,1.58
2023-04-10T23:46:32.773Z,1.60
2023-04-10T23:48:35.303Z,1.50
2023-04-10T23:50:37.922Z,1.33
2023-04-10T23:52:40.556Z,1.70
2023-04-10T23:54:43.500Z,1.35
2023-04-10T23:56:46.047Z,1.40
2023-04-10T23:58:50.077Z,1.23
